sensor_id;sensor_type;location;lat;lon;timestamp;P1;durP1;ratioP1;P2;durP2;ratioP2
4565;SDS011;2295;51.050;14.608;2023-11-19T00:01:21;12.52;;;6.60;;
4565;SDS011;2295;51.050;14.608;2023-11-19T00:03:59;11.25;;;6.93;;
4565;SDS011;2295;51.050;14.608;2023-11-19T00:06:36;13.15;;;6.65;;
4565;SDS011;2295;51.050;14.608;2023-11-19T00:09:43;22.35;;;6.68;;
4565;SDS011;2295;51.050;14.608;2023-11-19T00:12:57;15.07;;;6.30;;
4565;SDS011;2295;51.050;14.608;2023-11-19T00:22:27;13.38;;;7.20;;
4565;SDS011;2295;51.050;14.608;2023-11-19T00:25:13;13.77;;;7.75;;
4565;SDS011;2295;51.050;14.608;2023-11-19T00:27:50;11.77;;;6.80;;
4565;SDS011;2295;51.050;14.608;2023-11-19T00:30:55;15.20;;;7.30;;
4565;SDS011;2295;51.050;14.608;2023-11-19T00:33:44;11.50;;;6.90;;
4565;SDS011;2295;51.050;14.608;2023-11-19T00:36:20;15.00;;;8.15;;
4565;SDS011;2295;51.050;14.608;2023-11-19T00:41:55;19.35;;;7.45;;
4565;SDS011;2295;51.050;14.608;2023-11-19T00:45:23;15.32;;;8.90;;
4565;SDS011;2295;51.050;14.608;2023-11-19T00:52:19;18.40;;;7.80;;
4565;SDS011;2295;51.050;14.608;2023-11-19T00:55:46;12.80;;;7.05;;
4565;SDS011;2295;51.050;14.608;2023-11-19T00:58:39;15.63;;;8.43;;
4565;SDS011;2295;51.050;14.608;2023-11-19T01:01:23;16.05;;;8.82;;
4565;SDS011;2295;51.050;14.608;2023-11-19T01:03:53;13.63;;;7.55;;
4565;SDS011;2295;51.050;14.608;2023-11-19T01:06:30;19.40;;;7.75;;
4565;SDS011;2295;51.050;14.608;2023-11-19T01:09:35;17.95;;;9.07;;
4565;SDS011;2295;51.050;14.608;2023-11-19T01:12:23;14.20;;;8.90;;
4565;SDS011;2295;51.050;14.608;2023-11-19T01:15:39;16.83;;;9.18;;
4565;SDS011;2295;51.050;14.608;2023-11-19T01:24:59;13.57;;;8.73;;
4565;SDS011;2295;51.050;14.608;2023-11-19T01:27:40;16.65;;;8.73;;
4565;SDS011;2295;51.050;14.608;2023-11-19T01:30:40;14.15;;;7.95;;
4565;SDS011;2295;51.050;14.608;2023-11-19T01:34:45;12.43;;;8.52;;
4565;SDS011;2295;51.050;14.608;2023-11-19T01:37:33;16.42;;;6.97;;
4565;SDS011;2295;51.050;14.608;2023-11-19T01:44:13;14.32;;;7.30;;
4565;SDS011;2295;51.050;14.608;2023-11-19T01:46:56;9.63;;;6.95;;
4565;SDS011;2295;51.050;14.608;2023-11-19T01:49:39;13.15;;;7.30;;
4565;SDS011;2295;51.050;14.608;2023-11-19T01:53:01;10.80;;;6.95;;
4565;SDS011;2295;51.050;14.608;2023-11-19T01:55:51;13.30;;;6.55;;
4565;SDS011;2295;51.050;14.608;2023-11-19T01:58:42;12.13;;;6.93;;
4565;SDS011;2295;51.050;14.608;2023-11-19T02:01:33;10.98;;;6.95;;
4565;SDS011;2295;51.050;14.608;2023-11-19T02:11:47;13.85;;;6.25;;
4565;SDS011;2295;51.050;14.608;2023-11-19T02:21:44;8.75;;;5.85;;
4565;SDS011;2295;51.050;14.608;2023-11-19T02:24:14;9.85;;;6.55;;
4565;SDS011;2295;51.050;14.608;2023-11-19T02:27:02;8.18;;;6.20;;
4565;SDS011;2295;51.050;14.608;2023-11-19T02:29:55;11.00;;;6.25;;
4565;SDS011;2295;51.050;14.608;2023-11-19T02:32:44;8.18;;;5.72;;
4565;SDS011;2295;51.050;14.608;2023-11-19T02:35:46;6.63;;;4.65;;
4565;SDS011;2295;51.050;14.608;2023-11-19T02:38:39;6.63;;;4.15;;
4565;SDS011;2295;51.050;14.608;2023-11-19T02:41:11;5.95;;;3.97;;
4565;SDS011;2295;51.050;14.608;2023-11-19T02:44:14;5.55;;;3.58;;
4565;SDS011;2295;51.050;14.608;2023-11-19T02:47:06;10.70;;;4.30;;
4565;SDS011;2295;51.050;14.608;2023-11-19T02:49:51;6.95;;;3.88;;
4565;SDS011;2295;51.050;14.608;2023-11-19T02:52:43;6.50;;;4.47;;
4565;SDS011;2295;51.050;14.608;2023-11-19T02:55:29;5.55;;;4.50;;
4565;SDS011;2295;51.050;14.608;2023-11-19T02:58:19;6.22;;;4.13;;
4565;SDS011;2295;51.050;14.608;2023-11-19T03:00:51;5.78;;;4.05;;
4565;SDS011;2295;51.050;14.608;2023-11-19T03:07:06;7.80;;;5.00;;
4565;SDS011;2295;51.050;14.608;2023-11-19T03:09:48;6.78;;;4.93;;
4565;SDS011;2295;51.050;14.608;2023-11-19T03:12:37;5.70;;;3.90;;
4565;SDS011;2295;51.050;14.608;2023-11-19T03:15:33;6.15;;;5.07;;
4565;SDS011;2295;51.050;14.608;2023-11-19T03:18:23;6.68;;;4.32;;
4565;SDS011;2295;51.050;14.608;2023-11-19T03:21:41;6.28;;;3.80;;
4565;SDS011;2295;51.050;14.608;2023-11-19T03:24:52;6.80;;;4.10;;
4565;SDS011;2295;51.050;14.608;2023-11-19T03:28:00;8.65;;;5.05;;
4565;SDS011;2295;51.050;14.608;2023-11-19T03:31:02;6.32;;;4.70;;
4565;SDS011;2295;51.050;14.608;2023-11-19T03:34:09;6.90;;;4.55;;
4565;SDS011;2295;51.050;14.608;2023-11-19T03:36:59;10.15;;;4.22;;
4565;SDS011;2295;51.050;14.608;2023-11-19T03:40:18;5.82;;;4.35;;
4565;SDS011;2295;51.050;14.608;2023-11-19T03:43:37;6.50;;;4.20;;
4565;SDS011;2295;51.050;14.608;2023-11-19T03:46:43;7.65;;;4.78;;
4565;SDS011;2295;51.050;14.608;2023-11-19T03:50:45;5.82;;;4.95;;
4565;SDS011;2295;51.050;14.608;2023-11-19T03:53:28;5.57;;;4.05;;
4565;SDS011;2295;51.050;14.608;2023-11-19T03:57:21;5.93;;;4.00;;
4565;SDS011;2295;51.050;14.608;2023-11-19T04:00:34;8.93;;;3.95;;
4565;SDS011;2295;51.050;14.608;2023-11-19T04:03:26;3.42;;;2.88;;
4565;SDS011;2295;51.050;14.608;2023-11-19T04:06:16;4.03;;;2.83;;
4565;SDS011;2295;51.050;14.608;2023-11-19T04:09:24;3.65;;;3.13;;
4565;SDS011;2295;51.050;14.608;2023-11-19T04:12:21;5.35;;;3.60;;
4565;SDS011;2295;51.050;14.608;2023-11-19T04:15:30;4.53;;;3.55;;
4565;SDS011;2295;51.050;14.608;2023-11-19T04:18:28;8.55;;;3.92;;
4565;SDS011;2295;51.050;14.608;2023-11-19T04:24:51;5.00;;;3.97;;
4565;SDS011;2295;51.050;14.608;2023-11-19T04:27:49;4.63;;;3.90;;
4565;SDS011;2295;51.050;14.608;2023-11-19T04:30:30;5.68;;;3.75;;
4565;SDS011;2295;51.050;14.608;2023-11-19T04:33:06;7.95;;;3.95;;
4565;SDS011;2295;51.050;14.608;2023-11-19T04:39:28;4.88;;;3.28;;
4565;SDS011;2295;51.050;14.608;2023-11-19T04:42:16;8.32;;;4.55;;
4565;SDS011;2295;51.050;14.608;2023-11-19T04:47:40;7.38;;;5.07;;
4565;SDS011;2295;51.050;14.608;2023-11-19T04:53:54;6.05;;;4.80;;
4565;SDS011;2295;51.050;14.608;2023-11-19T04:57:09;4.60;;;3.90;;
4565;SDS011;2295;51.050;14.608;2023-11-19T05:00:34;6.97;;;4.15;;
4565;SDS011;2295;51.050;14.608;2023-11-19T05:03:36;8.70;;;5.18;;
4565;SDS011;2295;51.050;14.608;2023-11-19T05:06:31;5.72;;;3.90;;
4565;SDS011;2295;51.050;14.608;2023-11-19T05:09:15;7.10;;;4.43;;
4565;SDS011;2295;51.050;14.608;2023-11-19T05:11:57;8.63;;;3.60;;
4565;SDS011;2295;51.050;14.608;2023-11-19T05:14:31;10.88;;;5.00;;
4565;SDS011;2295;51.050;14.608;2023-11-19T05:17:17;5.88;;;3.90;;
4565;SDS011;2295;51.050;14.608;2023-11-19T05:20:09;7.85;;;4.30;;
4565;SDS011;2295;51.050;14.608;2023-11-19T05:23:04;8.50;;;4.85;;
4565;SDS011;2295;51.050;14.608;2023-11-19T05:29:26;6.00;;;4.22;;
4565;SDS011;2295;51.050;14.608;2023-11-19T05:32:12;6.20;;;4.10;;
4565;SDS011;2295;51.050;14.608;2023-11-19T05:35:29;7.30;;;4.00;;
4565;SDS011;2295;51.050;14.608;2023-11-19T05:38:33;10.27;;;4.55;;
4565;SDS011;2295;51.050;14.608;2023-11-19T05:45:12;4.10;;;3.70;;
4565;SDS011;2295;51.050;14.608;2023-11-19T05:48:07;4.68;;;3.40;;
4565;SDS011;2295;51.050;14.608;2023-11-19T05:51:30;3.85;;;3.45;;
4565;SDS011;2295;51.050;14.608;2023-11-19T05:54:29;5.47;;;3.92;;
4565;SDS011;2295;51.050;14.608;2023-11-19T05:57:16;5.10;;;4.20;;
4565;SDS011;2295;51.050;14.608;2023-11-19T06:00:30;7.03;;;4.32;;
4565;SDS011;2295;51.050;14.608;2023-11-19T06:03:17;6.18;;;4.90;;
4565;SDS011;2295;51.050;14.608;2023-11-19T06:06:05;6.03;;;4.05;;
4565;SDS011;2295;51.050;14.608;2023-11-19T06:08:43;6.95;;;3.75;;
4565;SDS011;2295;51.050;14.608;2023-11-19T06:11:24;5.20;;;3.95;;
4565;SDS011;2295;51.050;14.608;2023-11-19T06:14:26;4.30;;;3.90;;
4565;SDS011;2295;51.050;14.608;2023-11-19T06:18:06;4.70;;;3.65;;
4565;SDS011;2295;51.050;14.608;2023-11-19T06:21:00;6.93;;;3.80;;
4565;SDS011;2295;51.050;14.608;2023-11-19T06:27:55;11.20;;;3.40;;
4565;SDS011;2295;51.050;14.608;2023-11-19T06:30:32;6.18;;;2.88;;
4565;SDS011;2295;51.050;14.608;2023-11-19T06:33:25;3.25;;;2.72;;
4565;SDS011;2295;51.050;14.608;2023-11-19T06:36:14;2.70;;;2.50;;
4565;SDS011;2295;51.050;14.608;2023-11-19T06:38:58;4.65;;;2.75;;
4565;SDS011;2295;51.050;14.608;2023-11-19T06:41:48;2.97;;;2.50;;
4565;SDS011;2295;51.050;14.608;2023-11-19T06:44:42;2.20;;;2.10;;
4565;SDS011;2295;51.050;14.608;2023-11-19T06:47:54;2.50;;;2.30;;
4565;SDS011;2295;51.050;14.608;2023-11-19T06:50:52;3.25;;;2.38;;
4565;SDS011;2295;51.050;14.608;2023-11-19T06:53:30;3.17;;;2.75;;
4565;SDS011;2295;51.050;14.608;2023-11-19T06:56:22;3.63;;;2.72;;
4565;SDS011;2295;51.050;14.608;2023-11-19T06:59:11;3.13;;;2.30;;
4565;SDS011;2295;51.050;14.608;2023-11-19T07:01:46;2.10;;;1.90;;
4565;SDS011;2295;51.050;14.608;2023-11-19T07:04:48;2.50;;;2.00;;
4565;SDS011;2295;51.050;14.608;2023-11-19T07:08:02;4.85;;;1.90;;
4565;SDS011;2295;51.050;14.608;2023-11-19T07:10:59;2.35;;;2.15;;
4565;SDS011;2295;51.050;14.608;2023-11-19T07:13:46;2.22;;;1.77;;
4565;SDS011;2295;51.050;14.608;2023-11-19T07:16:56;2.10;;;1.70;;
4565;SDS011;2295;51.050;14.608;2023-11-19T07:20:12;2.10;;;1.55;;
4565;SDS011;2295;51.050;14.608;2023-11-19T07:23:23;1.90;;;1.60;;
4565;SDS011;2295;51.050;14.608;2023-11-19T07:26:31;1.60;;;1.50;;
4565;SDS011;2295;51.050;14.608;2023-11-19T07:33:00;2.25;;;2.05;;
4565;SDS011;2295;51.050;14.608;2023-11-19T07:39:10;2.00;;;1.90;;
4565;SDS011;2295;51.050;14.608;2023-11-19T07:41:40;2.88;;;1.48;;
4565;SDS011;2295;51.050;14.608;2023-11-19T07:44:17;1.35;;;1.25;;
4565;SDS011;2295;51.050;14.608;2023-11-19T07:49:39;1.85;;;1.20;;
4565;SDS011;2295;51.050;14.608;2023-11-19T07:52:14;2.72;;;1.35;;
4565;SDS011;2295;51.050;14.608;2023-11-19T07:55:01;1.50;;;1.38;;
4565;SDS011;2295;51.050;14.608;2023-11-19T07:57:33;1.77;;;1.45;;
4565;SDS011;2295;51.050;14.608;2023-11-19T08:00:12;13.88;;;1.80;;
4565;SDS011;2295;51.050;14.608;2023-11-19T08:02:50;2.25;;;2.05;;
4565;SDS011;2295;51.050;14.608;2023-11-19T08:05:36;2.03;;;1.83;;
4565;SDS011;2295;51.050;14.608;2023-11-19T08:08:45;2.97;;;2.00;;
4565;SDS011;2295;51.050;14.608;2023-11-19T08:11:36;9.13;;;2.25;;
4565;SDS011;2295;51.050;14.608;2023-11-19T08:15:05;2.42;;;2.22;;
4565;SDS011;2295;51.050;14.608;2023-11-19T08:17:34;2.08;;;1.83;;
4565;SDS011;2295;51.050;14.608;2023-11-19T08:20:06;2.40;;;1.92;;
4565;SDS011;2295;51.050;14.608;2023-11-19T08:22:42;2.85;;;1.88;;
4565;SDS011;2295;51.050;14.608;2023-11-19T08:25:28;2.20;;;1.80;;
4565;SDS011;2295;51.050;14.608;2023-11-19T08:28:26;3.08;;;2.63;;
4565;SDS011;2295;51.050;14.608;2023-11-19T08:33:59;10.13;;;2.03;;
4565;SDS011;2295;51.050;14.608;2023-11-19T08:37:12;3.90;;;2.20;;
4565;SDS011;2295;51.050;14.608;2023-11-19T08:39:44;9.70;;;2.20;;
4565;SDS011;2295;51.050;14.608;2023-11-19T08:42:25;2.35;;;2.15;;
4565;SDS011;2295;51.050;14.608;2023-11-19T08:45:03;2.20;;;2.00;;
4565;SDS011;2295;51.050;14.608;2023-11-19T08:47:50;4.78;;;2.22;;
4565;SDS011;2295;51.050;14.608;2023-11-19T08:50:40;2.40;;;2.15;;
4565;SDS011;2295;51.050;14.608;2023-11-19T08:53:21;2.78;;;2.22;;
4565;SDS011;2295;51.050;14.608;2023-11-19T08:55:59;3.13;;;2.80;;
4565;SDS011;2295;51.050;14.608;2023-11-19T09:05:11;2.97;;;2.00;;
4565;SDS011;2295;51.050;14.608;2023-11-19T09:08:12;2.17;;;1.98;;
4565;SDS011;2295;51.050;14.608;2023-11-19T09:10:50;2.60;;;2.10;;
4565;SDS011;2295;51.050;14.608;2023-11-19T09:13:41;2.05;;;1.75;;
4565;SDS011;2295;51.050;14.608;2023-11-19T09:16:17;2.53;;;2.30;;
4565;SDS011;2295;51.050;14.608;2023-11-19T09:18:47;2.88;;;2.28;;
4565;SDS011;2295;51.050;14.608;2023-11-19T09:21:20;2.25;;;2.10;;
4565;SDS011;2295;51.050;14.608;2023-11-19T09:23:54;2.90;;;2.60;;
4565;SDS011;2295;51.050;14.608;2023-11-19T09:26:32;4.88;;;2.45;;
4565;SDS011;2295;51.050;14.608;2023-11-19T09:29:06;5.35;;;2.10;;
4565;SDS011;2295;51.050;14.608;2023-11-19T09:31:43;4.32;;;2.60;;
4565;SDS011;2295;51.050;14.608;2023-11-19T09:34:19;4.72;;;2.30;;
4565;SDS011;2295;51.050;14.608;2023-11-19T09:36:47;2.70;;;2.17;;
4565;SDS011;2295;51.050;14.608;2023-11-19T09:39:16;4.95;;;2.83;;
4565;SDS011;2295;51.050;14.608;2023-11-19T09:41:48;2.75;;;2.25;;
4565;SDS011;2295;51.050;14.608;2023-11-19T09:44:16;4.82;;;2.38;;
4565;SDS011;2295;51.050;14.608;2023-11-19T09:46:45;3.78;;;2.15;;
4565;SDS011;2295;51.050;14.608;2023-11-19T09:49:15;2.17;;;1.95;;
4565;SDS011;2295;51.050;14.608;2023-11-19T09:52:02;1.90;;;1.70;;
4565;SDS011;2295;51.050;14.608;2023-11-19T09:54:36;4.25;;;1.75;;
4565;SDS011;2295;51.050;14.608;2023-11-19T09:57:04;2.15;;;1.77;;
4565;SDS011;2295;51.050;14.608;2023-11-19T09:59:36;3.25;;;1.63;;
4565;SDS011;2295;51.050;14.608;2023-11-19T10:02:08;1.67;;;1.58;;
4565;SDS011;2295;51.050;14.608;2023-11-19T10:04:42;1.92;;;1.83;;
4565;SDS011;2295;51.050;14.608;2023-11-19T10:07:13;1.83;;;1.70;;
4565;SDS011;2295;51.050;14.608;2023-11-19T10:09:41;2.05;;;1.60;;
4565;SDS011;2295;51.050;14.608;2023-11-19T10:12:16;2.28;;;1.70;;
4565;SDS011;2295;51.050;14.608;2023-11-19T10:14:47;2.45;;;2.25;;
4565;SDS011;2295;51.050;14.608;2023-11-19T10:17:17;2.33;;;1.85;;
4565;SDS011;2295;51.050;14.608;2023-11-19T10:19:48;5.13;;;2.25;;
4565;SDS011;2295;51.050;14.608;2023-11-19T10:22:19;3.33;;;3.00;;
4565;SDS011;2295;51.050;14.608;2023-11-19T10:24:47;2.70;;;2.00;;
4565;SDS011;2295;51.050;14.608;2023-11-19T10:27:23;2.60;;;2.40;;
4565;SDS011;2295;51.050;14.608;2023-11-19T10:29:54;6.95;;;2.40;;
4565;SDS011;2295;51.050;14.608;2023-11-19T10:32:27;3.38;;;2.80;;
4565;SDS011;2295;51.050;14.608;2023-11-19T10:35:06;6.32;;;1.83;;
4565;SDS011;2295;51.050;14.608;2023-11-19T10:37:45;3.75;;;1.67;;
4565;SDS011;2295;51.050;14.608;2023-11-19T10:40:14;2.30;;;1.88;;
4565;SDS011;2295;51.050;14.608;2023-11-19T10:42:43;2.97;;;2.15;;
4565;SDS011;2295;51.050;14.608;2023-11-19T10:45:21;6.85;;;2.00;;
4565;SDS011;2295;51.050;14.608;2023-11-19T10:47:51;6.75;;;2.45;;
4565;SDS011;2295;51.050;14.608;2023-11-19T10:50:23;2.33;;;2.10;;
4565;SDS011;2295;51.050;14.608;2023-11-19T10:52:52;2.15;;;2.00;;
4565;SDS011;2295;51.050;14.608;2023-11-19T10:55:28;3.10;;;2.58;;
4565;SDS011;2295;51.050;14.608;2023-11-19T10:57:58;2.55;;;2.30;;
4565;SDS011;2295;51.050;14.608;2023-11-19T11:00:28;2.22;;;2.03;;
4565;SDS011;2295;51.050;14.608;2023-11-19T11:03:00;3.30;;;2.45;;
4565;SDS011;2295;51.050;14.608;2023-11-19T11:05:32;2.42;;;2.20;;
4565;SDS011;2295;51.050;14.608;2023-11-19T11:08:01;2.60;;;2.40;;
4565;SDS011;2295;51.050;14.608;2023-11-19T11:10:33;2.20;;;2.08;;
4565;SDS011;2295;51.050;14.608;2023-11-19T11:13:23;4.93;;;1.85;;
4565;SDS011;2295;51.050;14.608;2023-11-19T11:15:55;6.63;;;2.53;;
4565;SDS011;2295;51.050;14.608;2023-11-19T11:18:25;4.13;;;3.25;;
4565;SDS011;2295;51.050;14.608;2023-11-19T11:20:55;3.47;;;3.15;;
4565;SDS011;2295;51.050;14.608;2023-11-19T11:23:33;10.63;;;3.55;;
4565;SDS011;2295;51.050;14.608;2023-11-19T11:26:26;8.93;;;4.50;;
4565;SDS011;2295;51.050;14.608;2023-11-19T11:29:14;13.75;;;7.03;;
4565;SDS011;2295;51.050;14.608;2023-11-19T11:31:53;21.98;;;8.75;;
4565;SDS011;2295;51.050;14.608;2023-11-19T11:34:35;41.00;;;13.55;;
4565;SDS011;2295;51.050;14.608;2023-11-19T11:37:15;51.42;;;18.40;;
4565;SDS011;2295;51.050;14.608;2023-11-19T11:39:46;35.92;;;13.70;;
4565;SDS011;2295;51.050;14.608;2023-11-19T11:42:31;7.25;;;4.30;;
4565;SDS011;2295;51.050;14.608;2023-11-19T11:45:04;23.52;;;3.80;;
4565;SDS011;2295;51.050;14.608;2023-11-19T11:53:55;12.77;;;4.03;;
4565;SDS011;2295;51.050;14.608;2023-11-19T11:56:32;9.10;;;5.20;;
4565;SDS011;2295;51.050;14.608;2023-11-19T11:59:01;27.20;;;16.33;;
4565;SDS011;2295;51.050;14.608;2023-11-19T12:01:29;13.85;;;8.88;;
4565;SDS011;2295;51.050;14.608;2023-11-19T12:03:58;8.85;;;6.35;;
4565;SDS011;2295;51.050;14.608;2023-11-19T12:06:26;16.92;;;4.35;;
4565;SDS011;2295;51.050;14.608;2023-11-19T12:09:00;6.20;;;4.40;;
4565;SDS011;2295;51.050;14.608;2023-11-19T12:11:30;5.68;;;3.47;;
4565;SDS011;2295;51.050;14.608;2023-11-19T12:13:59;6.80;;;4.15;;
4565;SDS011;2295;51.050;14.608;2023-11-19T12:16:33;4.50;;;3.92;;
4565;SDS011;2295;51.050;14.608;2023-11-19T12:19:04;3.90;;;3.50;;
4565;SDS011;2295;51.050;14.608;2023-11-19T12:21:34;4.28;;;3.85;;
4565;SDS011;2295;51.050;14.608;2023-11-19T12:24:06;5.60;;;4.75;;
4565;SDS011;2295;51.050;14.608;2023-11-19T12:26:36;5.85;;;4.38;;
4565;SDS011;2295;51.050;14.608;2023-11-19T12:29:06;5.57;;;3.53;;
4565;SDS011;2295;51.050;14.608;2023-11-19T12:31:35;5.85;;;4.00;;
4565;SDS011;2295;51.050;14.608;2023-11-19T12:34:08;15.48;;;4.63;;
4565;SDS011;2295;51.050;14.608;2023-11-19T12:36:40;9.50;;;6.68;;
4565;SDS011;2295;51.050;14.608;2023-11-19T12:39:12;19.52;;;14.40;;
4565;SDS011;2295;51.050;14.608;2023-11-19T12:41:51;13.35;;;8.10;;
4565;SDS011;2295;51.050;14.608;2023-11-19T12:44:25;11.30;;;7.20;;
4565;SDS011;2295;51.050;14.608;2023-11-19T12:47:00;11.13;;;4.90;;
4565;SDS011;2295;51.050;14.608;2023-11-19T12:49:30;23.48;;;4.30;;
4565;SDS011;2295;51.050;14.608;2023-11-19T12:51:58;19.05;;;14.23;;
4565;SDS011;2295;51.050;14.608;2023-11-19T12:54:36;17.15;;;4.20;;
4565;SDS011;2295;51.050;14.608;2023-11-19T12:57:07;16.27;;;8.85;;
4565;SDS011;2295;51.050;14.608;2023-11-19T12:59:38;22.52;;;3.00;;
4565;SDS011;2295;51.050;14.608;2023-11-19T13:02:06;8.63;;;2.42;;
4565;SDS011;2295;51.050;14.608;2023-11-19T13:04:35;23.35;;;4.45;;
4565;SDS011;2295;51.050;14.608;2023-11-19T13:07:04;26.27;;;6.22;;
4565;SDS011;2295;51.050;14.608;2023-11-19T13:09:33;13.23;;;3.92;;
4565;SDS011;2295;51.050;14.608;2023-11-19T13:12:11;22.85;;;3.10;;
4565;SDS011;2295;51.050;14.608;2023-11-19T13:14:42;13.13;;;3.20;;
4565;SDS011;2295;51.050;14.608;2023-11-19T13:17:15;22.35;;;8.55;;
4565;SDS011;2295;51.050;14.608;2023-11-19T13:19:46;21.40;;;3.67;;
4565;SDS011;2295;51.050;14.608;2023-11-19T13:22:17;18.83;;;3.45;;
4565;SDS011;2295;51.050;14.608;2023-11-19T13:24:46;13.25;;;2.90;;
4565;SDS011;2295;51.050;14.608;2023-11-19T13:27:16;15.55;;;3.58;;
4565;SDS011;2295;51.050;14.608;2023-11-19T13:29:44;14.02;;;3.78;;
4565;SDS011;2295;51.050;14.608;2023-11-19T13:32:13;17.90;;;8.55;;
4565;SDS011;2295;51.050;14.608;2023-11-19T13:34:44;17.48;;;6.28;;
4565;SDS011;2295;51.050;14.608;2023-11-19T13:37:12;19.55;;;4.78;;
4565;SDS011;2295;51.050;14.608;2023-11-19T13:39:41;24.48;;;8.52;;
4565;SDS011;2295;51.050;14.608;2023-11-19T13:42:10;16.83;;;5.68;;
4565;SDS011;2295;51.050;14.608;2023-11-19T13:44:41;22.90;;;5.60;;
4565;SDS011;2295;51.050;14.608;2023-11-19T13:47:09;18.02;;;4.95;;
4565;SDS011;2295;51.050;14.608;2023-11-19T13:49:40;11.35;;;3.90;;
4565;SDS011;2295;51.050;14.608;2023-11-19T13:52:08;9.65;;;4.78;;
4565;SDS011;2295;51.050;14.608;2023-11-19T13:54:38;14.77;;;4.80;;
4565;SDS011;2295;51.050;14.608;2023-11-19T13:57:06;13.77;;;4.18;;
4565;SDS011;2295;51.050;14.608;2023-11-19T13:59:39;26.65;;;3.53;;
4565;SDS011;2295;51.050;14.608;2023-11-19T14:02:09;9.68;;;3.22;;
4565;SDS011;2295;51.050;14.608;2023-11-19T14:04:37;28.92;;;3.70;;
4565;SDS011;2295;51.050;14.608;2023-11-19T14:07:06;10.50;;;3.50;;
4565;SDS011;2295;51.050;14.608;2023-11-19T14:09:34;8.65;;;3.90;;
4565;SDS011;2295;51.050;14.608;2023-11-19T14:12:03;19.33;;;3.90;;
4565;SDS011;2295;51.050;14.608;2023-11-19T14:14:35;10.70;;;3.58;;
4565;SDS011;2295;51.050;14.608;2023-11-19T14:17:07;10.57;;;2.40;;
4565;SDS011;2295;51.050;14.608;2023-11-19T14:19:40;12.77;;;3.10;;
4565;SDS011;2295;51.050;14.608;2023-11-19T14:22:09;8.63;;;2.97;;
4565;SDS011;2295;51.050;14.608;2023-11-19T14:24:38;17.02;;;3.17;;
4565;SDS011;2295;51.050;14.608;2023-11-19T14:27:08;25.52;;;7.22;;
4565;SDS011;2295;51.050;14.608;2023-11-19T14:29:37;16.98;;;7.53;;
4565;SDS011;2295;51.050;14.608;2023-11-19T14:32:07;21.00;;;6.53;;
4565;SDS011;2295;51.050;14.608;2023-11-19T14:34:36;20.73;;;7.90;;
4565;SDS011;2295;51.050;14.608;2023-11-19T14:37:04;22.77;;;7.60;;
4565;SDS011;2295;51.050;14.608;2023-11-19T14:39:33;13.32;;;5.57;;
4565;SDS011;2295;51.050;14.608;2023-11-19T14:42:02;20.58;;;7.05;;
4565;SDS011;2295;51.050;14.608;2023-11-19T14:44:32;15.25;;;6.43;;
4565;SDS011;2295;51.050;14.608;2023-11-19T14:47:00;19.95;;;7.30;;
4565;SDS011;2295;51.050;14.608;2023-11-19T14:49:31;14.38;;;6.80;;
4565;SDS011;2295;51.050;14.608;2023-11-19T14:51:59;19.90;;;7.93;;
4565;SDS011;2295;51.050;14.608;2023-11-19T14:54:30;31.20;;;16.02;;
4565;SDS011;2295;51.050;14.608;2023-11-19T14:56:59;34.35;;;13.80;;
4565;SDS011;2295;51.050;14.608;2023-11-19T14:59:27;36.33;;;18.75;;
4565;SDS011;2295;51.050;14.608;2023-11-19T15:01:56;29.95;;;13.77;;
4565;SDS011;2295;51.050;14.608;2023-11-19T15:04:25;24.20;;;12.90;;
4565;SDS011;2295;51.050;14.608;2023-11-19T15:06:56;21.63;;;8.45;;
4565;SDS011;2295;51.050;14.608;2023-11-19T15:09:24;33.50;;;12.38;;
4565;SDS011;2295;51.050;14.608;2023-11-19T15:11:53;34.95;;;16.73;;
4565;SDS011;2295;51.050;14.608;2023-11-19T15:14:24;31.90;;;13.30;;
4565;SDS011;2295;51.050;14.608;2023-11-19T15:16:53;37.75;;;18.88;;
4565;SDS011;2295;51.050;14.608;2023-11-19T15:19:21;62.47;;;31.85;;
4565;SDS011;2295;51.050;14.608;2023-11-19T15:21:50;39.63;;;20.83;;
4565;SDS011;2295;51.050;14.608;2023-11-19T15:24:20;39.45;;;17.48;;
4565;SDS011;2295;51.050;14.608;2023-11-19T15:26:48;28.60;;;13.07;;
4565;SDS011;2295;51.050;14.608;2023-11-19T15:29:17;28.52;;;13.73;;
4565;SDS011;2295;51.050;14.608;2023-11-19T15:31:47;38.97;;;19.80;;
4565;SDS011;2295;51.050;14.608;2023-11-19T15:34:15;44.58;;;30.13;;
4565;SDS011;2295;51.050;14.608;2023-11-19T15:36:45;23.73;;;10.77;;
4565;SDS011;2295;51.050;14.608;2023-11-19T15:39:14;23.45;;;9.52;;
4565;SDS011;2295;51.050;14.608;2023-11-19T15:41:47;43.05;;;27.80;;
4565;SDS011;2295;51.050;14.608;2023-11-19T15:44:15;29.88;;;15.98;;
4565;SDS011;2295;51.050;14.608;2023-11-19T15:46:44;21.70;;;11.38;;
4565;SDS011;2295;51.050;14.608;2023-11-19T15:49:12;66.60;;;35.55;;
4565;SDS011;2295;51.050;14.608;2023-11-19T15:51:41;83.05;;;36.50;;
4565;SDS011;2295;51.050;14.608;2023-11-19T15:54:10;46.58;;;24.23;;
4565;SDS011;2295;51.050;14.608;2023-11-19T15:56:39;43.50;;;20.40;;
4565;SDS011;2295;51.050;14.608;2023-11-19T15:59:09;32.05;;;16.90;;
4565;SDS011;2295;51.050;14.608;2023-11-19T16:01:41;31.60;;;12.18;;
4565;SDS011;2295;51.050;14.608;2023-11-19T16:04:09;24.98;;;11.07;;
4565;SDS011;2295;51.050;14.608;2023-11-19T16:06:38;32.30;;;15.05;;
4565;SDS011;2295;51.050;14.608;2023-11-19T16:09:09;29.90;;;10.88;;
4565;SDS011;2295;51.050;14.608;2023-11-19T16:11:41;63.35;;;14.77;;
4565;SDS011;2295;51.050;14.608;2023-11-19T16:14:26;24.55;;;10.30;;
4565;SDS011;2295;51.050;14.608;2023-11-19T16:16:57;55.35;;;13.38;;
4565;SDS011;2295;51.050;14.608;2023-11-19T16:19:26;41.50;;;21.13;;
4565;SDS011;2295;51.050;14.608;2023-11-19T16:21:55;33.60;;;14.15;;
4565;SDS011;2295;51.050;14.608;2023-11-19T16:24:23;31.90;;;10.75;;
4565;SDS011;2295;51.050;14.608;2023-11-19T16:26:52;24.33;;;8.27;;
4565;SDS011;2295;51.050;14.608;2023-11-19T16:29:20;25.83;;;9.60;;
4565;SDS011;2295;51.050;14.608;2023-11-19T16:31:50;32.22;;;10.20;;
4565;SDS011;2295;51.050;14.608;2023-11-19T16:34:18;21.83;;;8.65;;
4565;SDS011;2295;51.050;14.608;2023-11-19T16:36:50;23.55;;;9.10;;
4565;SDS011;2295;51.050;14.608;2023-11-19T16:39:18;44.78;;;8.68;;
4565;SDS011;2295;51.050;14.608;2023-11-19T16:41:47;26.02;;;7.90;;
4565;SDS011;2295;51.050;14.608;2023-11-19T16:44:15;47.75;;;19.30;;
4565;SDS011;2295;51.050;14.608;2023-11-19T16:46:44;19.85;;;7.05;;
4565;SDS011;2295;51.050;14.608;2023-11-19T16:49:14;40.17;;;13.07;;
4565;SDS011;2295;51.050;14.608;2023-11-19T16:51:49;25.45;;;6.80;;
4565;SDS011;2295;51.050;14.608;2023-11-19T16:54:17;37.47;;;8.20;;
4565;SDS011;2295;51.050;14.608;2023-11-19T16:56:46;21.02;;;6.10;;
4565;SDS011;2295;51.050;14.608;2023-11-19T16:59:14;20.23;;;4.65;;
4565;SDS011;2295;51.050;14.608;2023-11-19T17:01:44;24.38;;;5.72;;
4565;SDS011;2295;51.050;14.608;2023-11-19T17:04:14;24.17;;;7.45;;
4565;SDS011;2295;51.050;14.608;2023-11-19T17:06:43;33.35;;;7.57;;
4565;SDS011;2295;51.050;14.608;2023-11-19T17:09:13;24.80;;;6.32;;
4565;SDS011;2295;51.050;14.608;2023-11-19T17:11:42;38.92;;;7.47;;
4565;SDS011;2295;51.050;14.608;2023-11-19T17:14:13;24.75;;;9.20;;
4565;SDS011;2295;51.050;14.608;2023-11-19T17:16:42;27.90;;;10.77;;
4565;SDS011;2295;51.050;14.608;2023-11-19T17:19:10;26.10;;;9.50;;
4565;SDS011;2295;51.050;14.608;2023-11-19T17:21:40;28.35;;;7.88;;
4565;SDS011;2295;51.050;14.608;2023-11-19T17:24:09;33.13;;;6.43;;
4565;SDS011;2295;51.050;14.608;2023-11-19T17:26:38;20.52;;;5.63;;
4565;SDS011;2295;51.050;14.608;2023-11-19T17:29:09;20.15;;;5.45;;
4565;SDS011;2295;51.050;14.608;2023-11-19T17:31:38;19.48;;;5.85;;
4565;SDS011;2295;51.050;14.608;2023-11-19T17:34:07;71.93;;;25.50;;
4565;SDS011;2295;51.050;14.608;2023-11-19T17:36:41;98.75;;;27.65;;
4565;SDS011;2295;51.050;14.608;2023-11-19T17:39:09;97.00;;;37.65;;
4565;SDS011;2295;51.050;14.608;2023-11-19T17:41:40;80.68;;;25.25;;
4565;SDS011;2295;51.050;14.608;2023-11-19T17:44:12;51.75;;;21.10;;
4565;SDS011;2295;51.050;14.608;2023-11-19T17:46:40;40.03;;;11.05;;
4565;SDS011;2295;51.050;14.608;2023-11-19T17:49:09;30.73;;;10.52;;